Time,TemperatureF,DewpointF,PressureIn,WindDirection,WindDirectionDegrees,WindSpeedMPH,WindSpeedGustMPH,Humidity,HourlyPrecipIn,Conditions,Clouds,dailyrainin,SoftwareType,DateUTC
2013-06-09 00:13:00,59.1,58.0,30.05,West,275,0.0,-999.0,95,-99.99,,,0.03,weatherlink.com 1.10,2013-06-09 04:13:00,
2013-06-09 00:28:00,58.7,57.0,30.05,West,275,0.0,-999.0,95,-99.99,,,0.03,weatherlink.com 1.10,2013-06-09 04:28:00,
2013-06-09 00:43:00,58.3,57.0,30.05,West,275,0.0,-999.0,95,-99.99,,,0.03,weatherlink.com 1.10,2013-06-09 04:43:00,
2013-06-09 00:58:00,57.8,56.0,30.05,West,275,0.0,-999.0,95,-99.99,,,0.03,weatherlink.com 1.10,2013-06-09 04:58:00,
2013-06-09 01:13:00,57.5,56.0,30.05,West,275,0.0,-999.0,95,-99.99,,,0.03,weatherlink.com 1.10,2013-06-09 05:13:00,
2013-06-09 01:28:00,57.5,56.0,30.06,West,275,0.0,-999.0,94,-99.99,,,0.03,weatherlink.com 1.10,2013-06-09 05:28:00,
2013-06-09 01:43:00,57.2,56.0,30.06,West,275,0.0,-999.0,95,-99.99,,,0.03,weatherlink.com 1.10,2013-06-09 05:43:00,
2013-06-09 01:58:00,56.8,55.0,30.05,West,275,0.0,-999.0,95,-99.99,,,0.03,weatherlink.com 1.10,2013-06-09 05:58:00,
2013-06-09 02:13:00,56.4,55.0,30.05,West,275,0.0,-999.0,95,-99.99,,,0.03,weatherlink.com 1.10,2013-06-09 06:13:00,
2013-06-09 02:28:00,56.2,55.0,30.05,West,275,0.0,-999.0,95,-99.99,,,0.03,weatherlink.com 1.10,2013-06-09 06:28:00,
2013-06-09 02:43:00,56.0,55.0,30.06,West,275,1.0,-999.0,95,-99.99,,,0.03,weatherlink.com 1.10,2013-06-09 06:43:00,
2013-06-09 02:58:00,55.8,54.0,30.05,West,275,0.0,-999.0,95,-99.99,,,0.03,weatherlink.com 1.10,2013-06-09 06:58:00,
2013-06-09 03:28:00,56.4,55.0,30.05,West,275,4.0,-999.0,95,-99.99,,,0.03,weatherlink.com 1.10,2013-06-09 07:28:00,
2013-06-09 03:43:00,56.6,55.0,30.06,West,275,0.0,-999.0,95,-99.99,,,0.03,weatherlink.com 1.10,2013-06-09 07:43:00,
2013-06-09 03:58:00,56.5,55.0,30.07,West,275,0.0,-999.0,95,-99.99,,,0.03,weatherlink.com 1.10,2013-06-09 07:58:00,
2013-06-09 04:13:00,56.4,55.0,30.07,West,275,0.0,-999.0,95,-99.99,,,0.03,weatherlink.com 1.10,2013-06-09 08:13:00,
2013-06-09 04:28:00,56.3,55.0,30.08,West,275,0.0,-999.0,95,-99.99,,,0.03,weatherlink.com 1.10,2013-06-09 08:28:00,
2013-06-09 04:43:00,56.4,55.0,30.08,West,275,0.0,-999.0,95,-99.99,,,0.03,weatherlink.com 1.10,2013-06-09 08:43:00,
2013-06-09 04:58:00,56.9,55.0,30.08,West,275,2.0,-999.0,94,-99.99,,,0.03,weatherlink.com 1.10,2013-06-09 08:58:00,
2013-06-09 05:13:00,57.3,55.0,30.09,West,275,0.0,-999.0,92,-99.99,,,0.03,weatherlink.com 1.10,2013-06-09 09:13:00,
2013-06-09 05:28:00,57.4,55.0,30.09,West,275,0.0,-999.0,91,-99.99,,,0.03,weatherlink.com 1.10,2013-06-09 09:28:00,
2013-06-09 05:43:00,57.6,55.0,30.10,West,275,0.0,-999.0,90,-99.99,,,0.03,weatherlink.com 1.10,2013-06-09 09:43:00,
2013-06-09 05:58:00,57.8,55.0,30.10,West,275,2.0,-999.0,90,-99.99,,,0.03,weatherlink.com 1.10,2013-06-09 09:58:00,
2013-06-09 06:14:00,58.0,55.0,30.11,West,275,0.0,-999.0,89,-99.99,,,0.03,weatherlink.com 1.10,2013-06-09 10:14:00,
2013-06-09 06:29:00,58.3,55.0,30.11,West,275,2.0,-999.0,88,-99.99,,,0.03,weatherlink.com 1.10,2013-06-09 10:29:00,
2013-06-09 06:44:00,58.6,55.0,30.12,West,275,0.0,-999.0,87,-99.99,,,0.03,weatherlink.com 1.10,2013-06-09 10:44:00,
2013-06-09 06:59:00,58.9,55.0,30.13,West,277,3.0,-999.0,86,-99.99,,,0.03,weatherlink.com 1.10,2013-06-09 10:59:00,
2013-06-09 07:14:00,59.1,55.0,30.13,West,266,5.0,-999.0,86,-99.99,,,0.03,weatherlink.com 1.10,2013-06-09 11:14:00,
2013-06-09 07:29:00,59.5,55.0,30.13,WNW,297,0.0,-999.0,86,-99.99,,,0.03,weatherlink.com 1.10,2013-06-09 11:29:00,
2013-06-09 07:44:00,59.9,55.0,30.14,WNW,296,2.0,-999.0,85,-99.99,,,0.03,weatherlink.com 1.10,2013-06-09 11:44:00,
2013-06-09 07:59:00,60.2,56.0,30.14,West,279,4.0,-999.0,86,-99.99,,,0.03,weatherlink.com 1.10,2013-06-09 11:59:00,
2013-06-09 08:14:00,60.9,56.0,30.15,SW,226,5.0,-999.0,85,-99.99,,,0.03,weatherlink.com 1.10,2013-06-09 12:14:00,
2013-06-09 08:29:00,61.6,56.0,30.15,NW,316,3.0,-999.0,83,-99.99,,,0.03,weatherlink.com 1.10,2013-06-09 12:29:00,
2013-06-09 08:44:00,62.2,57.0,30.16,WNW,294,4.0,-999.0,83,-99.99,,,0.03,weatherlink.com 1.10,2013-06-09 12:44:00,
2013-06-09 08:59:00,62.5,57.0,30.15,West,260,4.0,-999.0,82,-99.99,,,0.03,weatherlink.com 1.10,2013-06-09 12:59:00,
2013-06-09 09:14:00,63.6,58.0,30.16,NW,316,0.0,-999.0,82,-99.99,,,0.03,weatherlink.com 1.10,2013-06-09 13:14:00,
2013-06-09 09:29:00,64.1,57.0,30.15,West,277,4.0,-999.0,77,-99.99,,,0.03,weatherlink.com 1.10,2013-06-09 13:29:00,
2013-06-09 09:44:00,65.0,57.0,30.15,WNW,284,4.0,-999.0,76,-99.99,,,0.03,weatherlink.com 1.10,2013-06-09 13:44:00,
2013-06-09 09:59:00,66.5,58.0,30.15,WNW,292,5.0,-999.0,74,-99.99,,,0.03,weatherlink.com 1.10,2013-06-09 13:59:00,
2013-06-09 10:14:00,66.9,58.0,30.16,NNW,342,5.0,-999.0,74,-99.99,,,0.03,weatherlink.com 1.10,2013-06-09 14:14:00,
2013-06-09 10:29:00,67.9,59.0,30.16,NE,53,0.0,-999.0,72,-99.99,,,0.03,weatherlink.com 1.10,2013-06-09 14:29:00,
2013-06-09 10:44:00,68.9,58.0,30.15,NNE,21,1.0,-999.0,69,-99.99,,,0.03,weatherlink.com 1.10,2013-06-09 14:44:00,
2013-06-09 11:14:00,70.5,59.0,30.15,North,5,3.0,-999.0,67,-99.99,,,0.03,weatherlink.com 1.10,2013-06-09 15:14:00,
2013-06-09 11:44:00,69.5,58.0,30.16,NNW,328,0.0,-999.0,66,-99.99,,,0.03,weatherlink.com 1.10,2013-06-09 15:44:00,
2013-06-09 11:59:00,68.9,58.0,30.16,North,360,0.0,-999.0,68,-99.99,,,0.03,weatherlink.com 1.10,2013-06-09 15:59:00,
2013-06-09 12:14:00,70.3,59.0,30.15,NW,320,3.0,-999.0,68,-99.99,,,0.03,weatherlink.com 1.10,2013-06-09 16:14:00,
2013-06-09 12:29:00,71.7,59.0,30.15,NNW,336,3.0,-999.0,64,-99.99,,,0.03,weatherlink.com 1.10,2013-06-09 16:29:00,
2013-06-09 13:00:00,71.6,57.0,30.15,NNW,334,0.0,-999.0,61,-99.99,,,0.03,weatherlink.com 1.10,2013-06-09 17:00:00,
2013-06-09 13:30:00,71.5,59.0,30.14,WNW,294,0.0,-999.0,64,-99.99,,,0.03,weatherlink.com 1.10,2013-06-09 17:30:00,
2013-06-09 13:45:00,71.7,57.0,30.13,West,281,0.0,-999.0,61,-99.99,,,0.03,weatherlink.com 1.10,2013-06-09 17:45:00,
2013-06-09 14:00:00,73.2,57.0,30.14,NW,306,2.0,-999.0,57,-99.99,,,0.00,weatherlink.com 1.10,2013-06-09 18:00:00,
2013-06-09 14:15:00,71.9,57.0,30.13,North,9,0.0,-999.0,59,-99.99,,,0.00,weatherlink.com 1.10,2013-06-09 18:15:00,
2013-06-09 14:30:00,71.2,59.0,30.13,NW,325,4.0,-999.0,65,-99.99,,,0.00,weatherlink.com 1.10,2013-06-09 18:30:00,
2013-06-09 15:00:00,72.6,57.0,30.13,ENE,59,0.0,-999.0,58,-99.99,,,0.00,weatherlink.com 1.10,2013-06-09 19:00:00,
2013-06-09 15:15:00,72.7,58.0,30.13,NNE,27,2.0,-999.0,61,-99.99,,,0.00,weatherlink.com 1.10,2013-06-09 19:15:00,
2013-06-09 15:30:00,73.4,57.0,30.13,ENE,62,0.0,-999.0,56,-99.99,,,0.00,weatherlink.com 1.10,2013-06-09 19:30:00,
2013-06-09 15:45:00,73.1,58.0,30.12,NNE,30,0.0,-999.0,59,-99.99,,,0.00,weatherlink.com 1.10,2013-06-09 19:45:00,
2013-06-09 16:00:00,74.5,58.0,30.12,North,5,3.0,-999.0,56,-99.99,,,0.00,weatherlink.com 1.10,2013-06-09 20:00:00,
2013-06-09 16:15:00,75.4,57.0,30.12,WNW,286,3.0,-999.0,54,-99.99,,,0.00,weatherlink.com 1.10,2013-06-09 20:15:00,
2013-06-09 16:30:00,74.1,57.0,30.11,NE,40,3.0,-999.0,56,-99.99,,,0.00,weatherlink.com 1.10,2013-06-09 20:30:00,
2013-06-09 16:45:00,75.0,58.0,30.11,ENE,58,0.0,-999.0,55,-99.99,,,0.00,weatherlink.com 1.10,2013-06-09 20:45:00,
2013-06-09 17:00:00,73.0,57.0,30.11,ENE,63,4.0,-999.0,58,-99.99,,,0.00,weatherlink.com 1.10,2013-06-09 21:00:00,
2013-06-09 17:15:00,74.0,57.0,30.10,NW,315,0.0,-999.0,56,-99.99,,,0.00,weatherlink.com 1.10,2013-06-09 21:15:00,
2013-06-09 17:30:00,73.7,56.0,30.10,NE,53,4.0,-999.0,55,-99.99,,,0.00,weatherlink.com 1.10,2013-06-09 21:30:00,
2013-06-09 17:45:00,74.1,57.0,30.10,NNE,32,0.0,-999.0,55,-99.99,,,0.00,weatherlink.com 1.10,2013-06-09 21:45:00,
2013-06-09 18:00:00,72.8,57.0,30.10,NE,37,0.0,-999.0,57,-99.99,,,0.00,weatherlink.com 1.10,2013-06-09 22:00:00,
2013-06-09 18:15:00,72.7,56.0,30.10,NE,38,0.0,-999.0,57,-99.99,,,0.00,weatherlink.com 1.10,2013-06-09 22:15:00,
2013-06-09 18:30:00,72.6,56.0,30.10,NE,49,0.0,-999.0,56,-99.99,,,0.00,weatherlink.com 1.10,2013-06-09 22:30:00,
2013-06-09 18:45:00,72.5,57.0,30.10,NE,46,0.0,-999.0,58,-99.99,,,0.00,weatherlink.com 1.10,2013-06-09 22:45:00,
2013-06-09 19:00:00,72.2,57.0,30.10,NE,52,0.0,-999.0,60,-99.99,,,0.00,weatherlink.com 1.10,2013-06-09 23:00:00,
2013-06-09 19:15:00,72.3,57.0,30.11,NE,52,0.0,-999.0,58,-99.99,,,0.00,weatherlink.com 1.10,2013-06-09 23:15:00,
2013-06-09 19:30:00,71.9,57.0,30.11,NE,44,0.0,-999.0,59,-99.99,,,0.00,weatherlink.com 1.10,2013-06-09 23:30:00,
2013-06-09 19:45:00,71.5,57.0,30.11,NE,52,1.0,-999.0,60,-99.99,,,0.00,weatherlink.com 1.10,2013-06-09 23:45:00,
2013-06-09 20:00:00,70.9,57.0,30.11,NE,47,0.0,-999.0,61,-99.99,,,0.00,weatherlink.com 1.10,2013-06-10 00:00:00,
2013-06-09 20:15:00,70.3,57.0,30.11,NE,46,0.0,-999.0,63,-99.99,,,0.00,weatherlink.com 1.10,2013-06-10 00:15:00,
2013-06-09 20:30:00,68.4,58.0,30.11,NE,46,0.0,-999.0,69,-99.99,,,0.00,weatherlink.com 1.10,2013-06-10 00:30:00,
2013-06-09 20:45:00,67.1,58.0,30.11,NE,46,0.0,-999.0,73,-99.99,,,0.00,weatherlink.com 1.10,2013-06-10 00:45:00,
2013-06-09 21:01:00,65.7,59.0,30.11,NE,46,0.0,-999.0,80,-99.99,,,0.00,weatherlink.com 1.10,2013-06-10 01:01:00,
2013-06-09 21:16:00,64.0,59.0,30.12,NE,46,0.0,-999.0,83,-99.99,,,0.00,weatherlink.com 1.10,2013-06-10 01:16:00,
2013-06-09 21:31:00,63.0,58.0,30.11,NE,46,0.0,-999.0,84,-99.99,,,0.00,weatherlink.com 1.10,2013-06-10 01:31:00,
2013-06-09 21:46:00,62.0,58.0,30.12,NE,46,0.0,-999.0,87,-99.99,,,0.00,weatherlink.com 1.10,2013-06-10 01:46:00,
2013-06-09 22:31:00,60.3,57.0,30.12,ENE,73,0.0,-999.0,90,-99.99,,,0.00,weatherlink.com 1.10,2013-06-10 02:31:00,
2013-06-09 23:16:00,60.1,57.0,30.11,ENE,73,0.0,-999.0,90,-99.99,,,0.00,weatherlink.com 1.10,2013-06-10 03:16:00,
2013-06-09 23:46:00,59.8,57.0,30.12,ENE,73,0.0,-999.0,90,-99.99,,,0.00,weatherlink.com 1.10,2013-06-10 03:46:00,